NCAR-RAP Real-Time Weather Data

Output produced by METARs form (18 August 2018  01:02 UTC)
found at http://weather.rap.ucar.edu/surface/
 
RJSA 180000Z 29003KT 230V010 9999 FEW025 BKN030 BKN/// 18/12 Q1014
RJSA 172300Z VRB02KT 9999 FEW025 BKN/// 17/10 Q1013
RJSA 172200Z 19004KT 9999 FEW020 SCT030 15/12 Q1014
RJSA 172140Z 22005KT 9999 FEW020 BKN030 14/12 Q1014 RMK 1CU020 6CU030 A2995
RJSA 171200Z 20006KT 9999 FEW030 BKN040 15/14 Q1011
RJSA 171100Z 21007KT 9999 FEW030 BKN045 15/14 Q1011
RJSA 171000Z 21006KT 9999 FEW030 BKN050 14/13 Q1010
RJSA 170900Z VRB02KT 9999 FEW030 SCT050 18/13 Q1010
RJSA 170800Z 04004KT 320V060 9999 FEW030 18/12 Q1009
RJSA 170700Z 01007KT 340V060 9999 FEW010 SCT030 BKN/// 19/13 Q1009
RJSA 170600Z 10006KT 020V130 9999 FEW005 SCT030 BKN070 17/13 Q1009
RJSA 170500Z 03006KT 8000 -SHRA FEW005 SCT020 BKN040 15/13 Q1009
RJSA 170451Z 01008KT 330V040 4500 SHRA BR FEW005 SCT020 BKN030 16/13 Q1009 RMK 1ST005 3CU020 6CU030 A2982
RJSA 170400Z 01005KT 320V050 9999 FEW010 SCT040 BKN050 18/12 Q1009
RJSA 170300Z 36008KT 310V030 9999 FEW005 SCT040 BKN050 19/13 Q1009
RJSA 170200Z VRB03KT 9999 FEW005 SCT050 BKN060 16/13 Q1009
RJSA 170100Z 11004KT 070V140 6000 -SHRA FEW001 SCT030 BKN035 14/13 Q1009
RJSA 170024Z 03003KT 330V080 5000 -SHRA BR FEW001 SCT006 BKN015 14/13 Q1009 RMK 1ST001 3ST006 6CU015 A2979
RJSA 170016Z 35004KT 310V070 3000 BCFG -SHRA BR FEW001 SCT004 BKN010 13/13 Q1009 RMK 1ST001 3ST004 6ST010 A2979
RJSA 170000Z 35006KT 320V030 2500 SHRA BCFG BR FEW001 SCT003 BKN006 13/13 Q1008
RJSA 162349Z 34009KT 310V020 2500 SHRA BCFG BR FEW001 SCT003 BKN006 13/13 Q1008 RMK 1ST001 4ST003 7ST006 A2978
RJSA 162325Z 02007KT 3000 BCFG -SHRA BR FEW001 SCT003 BKN006 14/14 Q1008 RMK 1ST001 4ST003 7ST006 A2977
RJSA 162314Z 01009KT 320V040 2500 SHRA BCFG BR FEW001 SCT003 BKN004 14/13 Q1008 RMK 1ST001 4ST003 7ST004 A2977
RJSA 162300Z 36005KT 330V030 2500 BCFG -SHRA BR FEW001 SCT003 BKN010 14/14 Q1007
RJSA 162247Z 35008KT 2000 R24/1300VP1800U BCFG -SHRA BR FEW001 SCT002 BKN003 14/13 Q1007 RMK 1ST001 4ST002 6ST003 A2975
RJSA 162233Z 01006KT 320V040 1500 R24/1100VP1800U BCFG -SHRA BR FEW001 BKN002 14/14 Q1007 RMK 2ST001 7ST002 A2974
RJSA 162218Z 01004KT 330V040 1500 R24/0900VP1800D SHRA BCFG BR FEW001 BKN002 14/14 Q1006 RMK 2ST001 7ST002 A2973
RJSA 162212Z VRB02KT 1500 R06/1800N +SHRA BCFG BR FEW001 BKN002 14/14 Q1006 RMK 2ST001 7ST002 A2972
RJSA 162200Z 02004KT 350V050 1500 R24/1100VP1800U BCFG -SHRA BR FEW001 BKN002 14/14 Q1006
RJSA 162140Z 04007KT 360V070 1500 R24/0900VP1800D SHRA BCFG BR FEW001 BKN002 14/13 Q1006 RMK 2ST001 7ST002 A2971
RJSA 161200Z 24011KT 9999 SCT025 BKN080 18/16 Q1000
RJSA 161100Z 21010KT 9999 FEW030 19/16 Q1000
RJSA 161000Z 20010KT 9999 FEW020 19/18 Q0999
RJSA 160900Z 20008KT 9999 FEW010 SCT030 BKN180 20/19 Q0999
RJSA 160816Z 24007KT 8000 -SHRA FEW001 SCT005 BKN020 20/19 Q0999 RMK 1ST001 3ST005 6CU020 A2953
RJSA 160800Z 25005KT 4000 -SHRA BR FEW001 SCT006 BKN020 19/19 Q1000
RJSA 160746Z 24007KT 4000 -SHRA BR FEW001 SCT010 BKN015 19/19 Q1000 RMK 1ST001 3ST010 5CU015 A2953
RJSA 160735Z 24007KT 8000 PRFG -SHRA BR FEW001 SCT010 BKN040 20/19 Q1000 RMK 1ST001 3ST010 5CU040 A2953 4000SE-SW
RJSA 160700Z 26011KT 230V300 4000 -SHRA BR FEW001 SCT005 BKN010 20/19 Q1000
RJSA 160643Z 28014G25KT 250V310 1600 SHRA BR FEW001 SCT005 BKN010 20/19 Q0999 RMK 1ST001 3ST005 6ST010 A2952 DOWN WASH OBS AT 0619Z IN CLIMB OUT RWY24 1000FT E170
RJSA 160622Z 27011G21KT 1400 R24/0600VP1800D +SHRA BR FEW001 SCT003 BKN008 21/20 Q0999 RMK 1ST001 3ST003 6ST008 A2951
RJSA 160618Z 27009G21KT 1200 R24/P1800N SHRA BR FEW001 SCT003 BKN010 21/20 Q0999 RMK 1ST001 3ST003 6ST010 A2950
RJSA 160615Z 28008KT 4000 R24/0800VP1800U -SHRA BR FEW001 SCT005 BKN015 21/21 Q0998 RMK 1ST001 3ST005 6CU015 A2950
RJSA 160612Z 28009KT 4000 R24/0800VP1800U -SHRA BR FEW001 SCT005 BKN015 21/20 Q0998 RMK 1ST001 3ST005 6CU015 A2949
RJSA 160607Z 29011KT 1600 R24/0800VP1800D +SHRA BR FEW001 SCT005 BKN015 21/20 Q0998 RMK 1ST001 3ST005 6CU015 A2949 RI++
RJSA 160603Z 29011KT 1400 R24/1200VP1800D +SHRA BR FEW001 SCT008 BKN012 21/21 Q0998 RMK 1ST001 4ST008 6ST012 A2949 RI++
RJSA 160600Z 29010KT 2000 R24/1200VP1800D +SHRA BR FEW001 SCT008 BKN012 21/21 Q0998
RJSA 160548Z 23012KT 2000 R24/1100VP1800D +SHRA BR FEW001 SCT010 BKN015 22/21 Q0998 RMK 1ST001 4ST010 6CU015 A2949
RJSA 160542Z 22012KT 4000 R24/1600VP1800N SHRA BR FEW001 SCT020 BKN030 22/20 Q0998 RMK 1ST001 4CU020 6CU030 A2949
RJSA 160500Z 21010KT 9999 FEW002 SCT015 BKN030 23/20 Q0999
RJSA 160400Z 21007KT 9999 -SHRA FEW001 SCT012 BKN030 23/21 Q1000
RJSA 160300Z 22008KT 9999 PRFG -SHRA FEW001 SCT010 BKN030 23/20 Q1001
RJSA 160247Z 11005KT 060V210 1600 R24/0350VP1800D BCFG -SHRA BR FEW001 SCT003 BKN030 23/21 Q1001 RMK 2ST001 3ST003 5CU030 A2956 9999S-W P/FR
RJSA 160245Z 12004KT 060V210 1200 R24/0350VP1800D BCFG -SHRA BR FEW001 SCT003 BKN030 23/21 Q1000 RMK 2ST001 3ST003 5CU030 A2956 9999S-W P/FR
RJSA 160244Z 13003KT 060V210 1200 R24/0350VP1800D BCFG -SHRA BR FEW001 SCT003 BKN030 23/21 Q1000 RMK 2ST001 3ST003 5CU030 A2956 9999S-W P/FR
RJSA 160242Z VRB02KT 2000 BCFG -SHRA BR FEW001 SCT010 BKN030 23/21 Q1001 RMK 2ST001 3ST010 5CU030 A2956 9999S-W
RJSA 160220Z VRB02KT 3500 BCFG -SHRA BR FEW001 SCT010 BKN030 22/21 Q1001 RMK 1ST001 3ST010 6CU030 A2958 9999S-W
RJSA 160200Z VRB01KT 3500 SHRA BCFG BR FEW001 SCT010 BKN025 21/20 Q1002
RJSA 160115Z VRB01KT 3500 SHRA BCFG BR FEW001 BKN010 BKN020 21/20 Q1003 RMK 2ST001 5ST010 7CU020 A2962
RJSA 160100Z 00000KT 2500 SHRA BCFG BR FEW001 SCT010 BKN025 21/20 Q1003
RJSA 160044Z VRB02KT 2000 SHRA BCFG BR FEW001 SCT010 BKN025 22/21 Q1003 RMK 2ST001 3ST010 6CU025 A2963 6000SW
RJSA 160000Z 07004KT 1600 BCFG -SHRA BR FEW001 SCT003 BKN030 22/20 Q1003
RJSA 152334Z VRB01KT 1400 R24/P1800N BCFG -SHRA BR FEW001 SCT003 BKN030 22/20 Q1003 RMK 2ST001 3ST003 6CU030 A2964 9999S-W
RJSA 152330Z VRB01KT 2000 BCFG -SHRA BR FEW001 SCT010 BKN030 22/20 Q1003 RMK 2ST001 3ST010 6CU030 A2964 9999S-W
RJSA 152327Z VRB02KT 4000 BCFG -SHRA BR FEW001 SCT010 BKN030 22/20 Q1004 RMK 1ST001 3ST010 6CU030 A2965 9999S-W
RJSA 152300Z 22003KT 9999 -SHRA FEW001 SCT012 BKN030 22/21 Q1004
RJSA 152200Z 21005KT 9999 FEW001 SCT010 BKN030 22/20 Q1004
RJSA 152140Z 19005KT 170V230 9999 FEW001 SCT010 BKN030 21/20 Q1004 RMK 1ST001 3ST010 6CU030 A2967